createdAt,value
2019-05-18T00:02:23.857Z,18.03
2019-05-18T00:06:34.543Z,17.63
2019-05-18T00:10:41.244Z,17.73
2019-05-18T00:14:51.452Z,17.40
2019-05-18T00:18:58.944Z,17.17
2019-05-18T00:23:05.689Z,18.13
2019-05-18T00:27:31.723Z,18.30
2019-05-18T00:31:41.916Z,17.10
2019-05-18T00:35:54.255Z,16.17
2019-05-18T00:39:59.980Z,15.80
2019-05-18T00:44:05.549Z,16.70
2019-05-18T00:48:15.063Z,15.57
2019-05-18T00:52:21.175Z,15.27
2019-05-18T00:56:27.115Z,15.47
2019-05-18T01:00:33.949Z,15.27
2019-05-18T01:04:40.091Z,15.60
2019-05-18T01:08:45.802Z,15.87
2019-05-18T01:12:51.433Z,16.47
2019-05-18T01:16:56.909Z,15.83
2019-05-18T01:21:04.385Z,15.03
2019-05-18T01:25:11.107Z,15.07
2019-05-18T01:29:17.191Z,16.57
2019-05-18T01:33:35.331Z,15.87
2019-05-18T01:37:44.869Z,15.83
2019-05-18T01:41:52.995Z,15.60
2019-05-18T01:46:00.045Z,15.97
2019-05-18T01:50:10.346Z,16.83
2019-05-18T01:54:17.843Z,15.77
2019-05-18T01:58:24.216Z,16.37
2019-05-18T02:06:38.900Z,16.00
2019-05-18T02:10:45.567Z,16.37
2019-05-18T02:14:55.125Z,15.83
2019-05-18T02:19:02.951Z,16.13
2019-05-18T02:23:08.821Z,16.33
2019-05-18T02:27:17.532Z,15.83
2019-05-18T02:31:26.156Z,16.73
2019-05-18T02:35:36.266Z,16.70
2019-05-18T02:39:41.704Z,16.93
2019-05-18T02:43:55.112Z,17.27
2019-05-18T02:52:14.409Z,18.13
2019-05-18T03:06:12.703Z,21.03
2019-05-18T03:10:21.783Z,21.77
2019-05-18T03:14:27.974Z,23.23
2019-05-18T03:18:34.188Z,22.60
2019-05-18T03:22:42.619Z,25.07
2019-05-18T03:26:48.449Z,24.80
2019-05-18T03:30:55.011Z,26.23
2019-05-18T03:35:21.230Z,27.63
2019-05-18T03:39:29.176Z,28.13
2019-05-18T03:43:35.294Z,29.40
2019-05-18T03:48:01.623Z,31.57
2019-05-18T03:52:07.062Z,29.60
2019-05-18T03:56:12.714Z,32.30
2019-05-18T04:00:21.473Z,30.83
2019-05-18T04:04:27.571Z,30.90
2019-05-18T04:08:39.445Z,30.57
2019-05-18T04:12:47.884Z,32.23
2019-05-18T04:17:00.565Z,30.37
2019-05-18T04:21:08.961Z,32.40
2019-05-18T04:25:14.676Z,31.80
2019-05-18T04:29:21.496Z,31.33
2019-05-18T04:33:30.044Z,31.33
2019-05-18T04:37:36.243Z,33.70
2019-05-18T04:41:43.571Z,32.10
2019-05-18T04:45:50.568Z,31.13
2019-05-18T04:50:05.218Z,26.30
2019-05-18T04:54:07.247Z,24.73
2019-05-18T04:58:13.126Z,22.63
2019-05-18T05:02:22.505Z,22.40
2019-05-18T05:06:27.952Z,22.50
2019-05-18T05:10:34.395Z,21.43
2019-05-18T05:14:40.991Z,22.70
2019-05-18T05:18:47.932Z,20.97
2019-05-18T05:22:54.226Z,18.03
2019-05-18T05:27:01.022Z,18.43
2019-05-18T05:31:06.495Z,20.00
2019-05-18T05:35:12.205Z,18.10
2019-05-18T05:39:20.912Z,18.43
2019-05-18T05:43:28.907Z,19.40
2019-05-18T05:47:38.856Z,17.63
2019-05-18T05:51:46.595Z,15.93
2019-05-18T05:55:52.695Z,15.30
2019-05-18T05:59:59.049Z,12.93
2019-05-18T06:04:07.124Z,12.97
2019-05-18T06:08:12.743Z,11.03
2019-05-18T06:12:21.904Z,12.57
2019-05-18T06:16:28.718Z,12.10
2019-05-18T06:20:48.873Z,13.43
2019-05-18T06:24:41.435Z,20.30
2019-05-18T06:28:52.251Z,15.83
2019-05-18T06:32:58.782Z,15.97
2019-05-18T06:37:04.569Z,15.17
2019-05-18T06:41:10.883Z,13.07
2019-05-18T06:45:18.293Z,13.80
2019-05-18T06:49:25.729Z,13.43
2019-05-18T06:53:32.211Z,12.50
2019-05-18T06:57:41.248Z,12.73
2019-05-18T07:01:48.230Z,13.20
2019-05-18T07:06:19.535Z,14.07
2019-05-18T07:10:25.902Z,13.03
2019-05-18T07:14:37.905Z,12.70
2019-05-18T07:18:46.532Z,12.73
2019-05-18T07:22:54.871Z,11.33
2019-05-18T07:27:00.558Z,12.10
2019-05-18T07:31:06.558Z,12.93
2019-05-18T07:35:16.633Z,12.40
2019-05-18T07:39:25.422Z,12.87
2019-05-18T07:43:54.353Z,12.53
2019-05-18T07:48:04.173Z,14.03
2019-05-18T07:52:10.810Z,15.13
2019-05-18T07:56:18.068Z,16.37
2019-05-18T08:00:24.211Z,15.37
2019-05-18T08:04:31.676Z,17.33
2019-05-18T08:08:38.056Z,18.33
2019-05-18T08:12:46.098Z,16.47
2019-05-18T08:16:54.928Z,16.37
2019-05-18T08:21:04.947Z,15.87
2019-05-18T08:25:11.678Z,14.07
2019-05-18T08:29:17.735Z,14.23
2019-05-18T08:33:23.224Z,13.60
2019-05-18T08:37:31.197Z,13.73
2019-05-18T08:41:38.348Z,13.57
2019-05-18T08:45:53.588Z,12.27
2019-05-18T08:50:01.542Z,13.13
2019-05-18T08:54:11.193Z,13.93
2019-05-18T09:03:11.092Z,15.63
2019-05-18T09:07:19.584Z,10.47
2019-05-18T09:11:27.604Z,10.97
2019-05-18T09:15:37.823Z,11.00
2019-05-18T09:19:45.908Z,11.13
2019-05-18T09:23:53.696Z,10.37
2019-05-18T09:27:59.707Z,9.73
2019-05-18T09:32:06.468Z,10.43
2019-05-18T09:36:15.407Z,10.43
2019-05-18T09:41:01.194Z,10.77
2019-05-18T09:45:09.526Z,8.20
2019-05-18T09:54:04.949Z,7.93
2019-05-18T09:58:41.506Z,8.00
2019-05-18T10:03:17.683Z,8.10
2019-05-18T10:08:00.057Z,8.27
2019-05-18T10:12:39.363Z,9.47
2019-05-18T10:21:38.182Z,7.67
2019-05-18T10:26:15.181Z,8.40
2019-05-18T10:30:53.105Z,6.93
2019-05-18T10:40:05.558Z,8.10
2019-05-18T10:44:38.132Z,12.87
2019-05-18T10:49:19.287Z,9.90
2019-05-18T10:53:50.807Z,9.30
2019-05-18T10:58:37.218Z,11.27
2019-05-18T11:03:13.500Z,9.80
2019-05-18T11:07:46.185Z,10.77
2019-05-18T11:12:18.964Z,10.30
2019-05-18T11:17:18.500Z,10.20
2019-05-18T11:21:52.245Z,10.00
2019-05-18T11:26:25.882Z,9.83
2019-05-18T11:30:59.767Z,10.40
2019-05-18T11:45:08.270Z,10.87
2019-05-18T11:54:17.895Z,9.97
2019-05-18T11:58:55.233Z,10.80
2019-05-18T12:03:48.195Z,10.87
2019-05-18T12:08:19.436Z,10.70
2019-05-18T12:12:54.285Z,10.90
2019-05-18T12:17:30.588Z,9.57
2019-05-18T12:22:03.234Z,10.57
2019-05-18T12:26:45.274Z,11.87
2019-05-18T12:36:15.758Z,9.93
2019-05-18T12:41:00.154Z,9.87
2019-05-18T12:45:40.198Z,10.07
2019-05-18T12:50:15.078Z,10.17
2019-05-18T12:54:47.814Z,10.57
2019-05-18T12:59:27.209Z,9.87
2019-05-18T13:04:00.818Z,8.93
2019-05-18T13:08:35.035Z,8.63
2019-05-18T13:13:10.338Z,9.13
2019-05-18T13:17:45.849Z,9.30
2019-05-18T13:22:17.928Z,9.23
2019-05-18T13:26:52.611Z,9.07
2019-05-18T13:40:35.849Z,9.73
2019-05-18T13:45:41.325Z,10.17
2019-05-18T13:50:05.448Z,9.40
2019-05-18T13:54:38.788Z,9.57
2019-05-18T13:59:10.668Z,9.00
2019-05-18T14:03:46.383Z,9.70
2019-05-18T14:08:18.566Z,9.53
2019-05-18T14:12:54.758Z,8.57
2019-05-18T14:17:48.066Z,9.00
2019-05-18T14:22:19.612Z,9.70
2019-05-18T14:26:50.723Z,8.87
2019-05-18T14:31:22.920Z,8.90
2019-05-18T14:35:58.971Z,8.77
2019-05-18T14:40:34.058Z,8.47
2019-05-18T14:45:09.032Z,8.53
2019-05-18T14:54:18.850Z,8.77
2019-05-18T15:03:38.406Z,8.83
2019-05-18T15:08:12.798Z,8.53
2019-05-18T15:12:49.674Z,8.80
2019-05-18T15:17:23.530Z,8.40
2019-05-18T15:26:40.594Z,8.73
2019-05-18T15:31:16.011Z,7.77
2019-05-18T15:35:49.925Z,8.13
2019-05-18T15:40:23.830Z,8.40
2019-05-18T15:45:00.268Z,8.00
2019-05-18T15:49:34.608Z,7.70
2019-05-18T16:03:34.759Z,7.27
2019-05-18T16:08:28.272Z,7.60
2019-05-18T16:12:55.758Z,7.27
2019-05-18T16:17:39.013Z,6.30
2019-05-18T16:22:06.444Z,5.67
2019-05-18T16:26:36.506Z,6.50
2019-05-18T16:31:35.341Z,6.30
2019-05-18T16:36:25.123Z,6.20
2019-05-18T16:40:59.157Z,6.53
2019-05-18T16:45:33.591Z,6.83
2019-05-18T16:50:11.311Z,6.60
2019-05-18T17:22:50.026Z,7.33
2019-05-18T17:27:26.186Z,8.17
2019-05-18T17:32:03.617Z,7.77
2019-05-18T17:36:40.086Z,7.50
2019-05-18T17:41:10.630Z,7.97
2019-05-18T17:45:45.275Z,8.03
2019-05-18T17:54:50.042Z,8.40
2019-05-18T17:59:42.866Z,9.10
2019-05-18T18:04:21.526Z,8.87
2019-05-18T18:08:55.625Z,9.27
2019-05-18T18:13:31.120Z,9.03
2019-05-18T18:22:44.866Z,9.63
2019-05-18T18:27:25.190Z,8.70
2019-05-18T18:31:58.574Z,9.57
2019-05-18T18:36:31.634Z,10.30
2019-05-18T18:41:03.868Z,11.30
2019-05-18T18:50:19.966Z,10.57
2019-05-18T18:54:52.650Z,11.27
2019-05-18T18:59:27.614Z,11.30
2019-05-18T19:04:02.712Z,11.97
2019-05-18T19:13:26.718Z,12.27
2019-05-18T19:18:39.188Z,12.10
2019-05-18T19:23:16.588Z,12.63
2019-05-18T19:27:55.026Z,12.80
2019-05-18T19:32:27.026Z,12.57
2019-05-18T19:37:03.115Z,12.03
2019-05-18T19:41:39.089Z,12.10
2019-05-18T19:46:12.452Z,12.47
2019-05-18T19:50:46.701Z,13.90
2019-05-18T19:55:21.119Z,12.17
2019-05-18T19:59:55.281Z,13.00
2019-05-18T20:04:29.386Z,12.77
2019-05-18T20:09:05.310Z,13.33
2019-05-18T20:14:00.377Z,12.80
2019-05-18T20:52:19.686Z,14.93
2019-05-18T21:06:10.759Z,11.13
2019-05-18T21:11:01.475Z,10.60
2019-05-18T22:02:22.276Z,9.53
2019-05-18T22:16:44.513Z,10.20
2019-05-18T22:21:16.613Z,9.53
2019-05-18T22:25:49.662Z,9.77
2019-05-18T22:30:23.637Z,10.13
2019-05-18T22:35:03.844Z,9.53
2019-05-18T22:39:41.425Z,9.87
2019-05-18T22:44:12.140Z,9.80
2019-05-18T22:48:49.148Z,9.17
2019-05-18T22:53:23.172Z,8.93
2019-05-18T22:58:01.158Z,9.43
2019-05-18T23:02:35.745Z,9.30
2019-05-18T23:11:53.712Z,8.47
2019-05-18T23:31:23.368Z,8.67
2019-05-18T23:35:54.449Z,9.47
2019-05-18T23:40:31.670Z,8.87
2019-05-18T23:45:08.040Z,9.00
2019-05-18T23:49:47.445Z,8.50
2019-05-18T23:54:21.314Z,8.70
2019-05-18T23:58:53.866Z,8.70
